首页
METAR-TAF:

METAR-TAF

机场 :

帕, 泰国

纬度: 18-10N, 经度: 100-10E, 海拔: 161米

当前天气观测

该预报发布于44分钟前的04:00 UTC
风速7节,风向西南,在西转西南之间变化
温度 31°C
湿度 71%
气压 1008 hPa
能见度10公里或以上
少量云层高于2000英尺

METAR: VTCP 280400Z 22007KT 170V250 9999 FEW020 31/25 Q1008 NOSIG

时间: 11:44 (04:44 UTC)

预报

该预报发布于5小时和44分钟前的23:00 UTC
预报有效从28日的 00点(UTC)到 28日的 24点(UTC)
风速5节,风向南转西南
能见度10公里或以上
散云层高于3000英尺
短暂存在
从 28日的 08点(UTC)到 28日的 14点(UTC)
风速15节,风向西转西南
能見度: 4000
少量云层高于2000英尺, 积雨云.
多云层高于3000英尺
雷暴, 雨
短暂存在
从 28日的 16点(UTC)到 28日的 19点(UTC)
少量云层高于2000英尺, 积雨云.
多云层高于3000英尺
雷暴, 小雨,

TAF: VTCP 272300Z 2800/2824 21005KT 9999 SCT030 TEMPO 2808/2814 24015KT 4000 TSRA FEW020CB BKN030 TEMPO 2816/2819 -TSRA FEW020CB BKN030

超过4000个机场的气象观测和天气预报(METAR&TAF报告)。

可查询的气象台以黄色和红色小点在地图上表示。

将鼠标移到小点上方,可查看气象台名称。

然后点击查看天气观测和预报。

如需切换地图:点击带黑十字的绿色按钮放大地图;点击带横线的绿色按钮缩小地图;或者点击绿色箭头查看邻近地区的地图。


METAR-TAF: